sensor_id;sensor_type;location;lat;lon;timestamp;pressure;altitude;pressure_sealevel;temperature;humidity
8890;BME280;4481;43.406;24.454;2023-04-05T00:00:52;77744.91;;;-144.09;100.00
8890;BME280;4481;43.406;24.454;2023-04-05T00:03:19;77744.91;;;-144.09;100.00
8890;BME280;4481;43.406;24.454;2023-04-05T00:05:45;77738.66;;;-144.09;100.00
8890;BME280;4481;43.406;24.454;2023-04-05T00:08:14;77732.38;;;-144.09;100.00
8890;BME280;4481;43.406;24.454;2023-04-05T00:10:48;77738.66;;;-144.09;100.00
8890;BME280;4481;43.406;24.454;2023-04-05T00:13:15;77744.91;;;-144.09;100.00
8890;BME280;4481;43.406;24.454;2023-04-05T00:15:42;77749.09;;;-144.09;100.00
8890;BME280;4481;43.406;24.454;2023-04-05T00:18:08;77751.19;;;-144.09;100.00
8890;BME280;4481;43.406;24.454;2023-04-05T00:20:44;77736.56;;;-144.09;100.00
8890;BME280;4481;43.406;24.454;2023-04-05T00:23:10;77719.84;;;-144.09;100.00
8890;BME280;4481;43.406;24.454;2023-04-05T00:25:36;77692.66;;;-144.09;100.00
8890;BME280;4481;43.406;24.454;2023-04-05T00:28:02;77688.47;;;-144.09;100.00
8890;BME280;4481;43.406;24.454;2023-04-05T00:30:28;77701.03;;;-144.09;100.00
8890;BME280;4481;43.406;24.454;2023-04-05T00:32:55;77713.56;;;-144.09;100.00
8890;BME280;4481;43.406;24.454;2023-04-05T00:35:21;77705.22;;;-144.09;100.00
8890;BME280;4481;43.406;24.454;2023-04-05T00:37:48;77696.84;;;-144.09;100.00
8890;BME280;4481;43.406;24.454;2023-04-05T00:40:14;77688.47;;;-144.09;100.00
8890;BME280;4481;43.406;24.454;2023-04-05T00:42:40;77671.75;;;-144.09;100.00
8890;BME280;4481;43.406;24.454;2023-04-05T00:45:07;77671.75;;;-144.09;100.00
8890;BME280;4481;43.406;24.454;2023-04-05T00:47:33;77680.13;;;-144.09;100.00
8890;BME280;4481;43.406;24.454;2023-04-05T00:50:00;77667.59;;;-144.09;100.00
8890;BME280;4481;43.406;24.454;2023-04-05T00:52:27;77684.31;;;-144.09;100.00
8890;BME280;4481;43.406;24.454;2023-04-05T00:54:53;77671.75;;;-144.09;100.00
8890;BME280;4481;43.406;24.454;2023-04-05T00:57:21;77673.84;;;-144.09;100.00
8890;BME280;4481;43.406;24.454;2023-04-05T00:59:49;77671.75;;;-144.09;100.00
8890;BME280;4481;43.406;24.454;2023-04-05T01:02:20;77650.84;;;-144.09;100.00
8890;BME280;4481;43.406;24.454;2023-04-05T01:04:54;77663.41;;;-144.09;100.00
8890;BME280;4481;43.406;24.454;2023-04-05T01:07:30;77663.41;;;-144.09;100.00
8890;BME280;4481;43.406;24.454;2023-04-05T01:10:01;77657.13;;;-144.09;100.00
8890;BME280;4481;43.406;24.454;2023-04-05T01:12:32;77661.31;;;-144.09;100.00
8890;BME280;4481;43.406;24.454;2023-04-05T01:14:59;77671.75;;;-144.09;100.00
8890;BME280;4481;43.406;24.454;2023-04-05T01:17:28;77686.41;;;-144.09;100.00
8890;BME280;4481;43.406;24.454;2023-04-05T01:20:02;77692.66;;;-144.09;100.00
8890;BME280;4481;43.406;24.454;2023-04-05T01:22:56;77686.41;;;-144.09;100.00
8890;BME280;4481;43.406;24.454;2023-04-05T01:25:48;77678.03;;;-144.09;100.00
8890;BME280;4481;43.406;24.454;2023-04-05T01:28:51;77665.50;;;-144.09;100.00
8890;BME280;4481;43.406;24.454;2023-04-05T01:31:27;77661.31;;;-144.09;100.00
8890;BME280;4481;43.406;24.454;2023-04-05T01:34:00;77657.13;;;-144.09;100.00
8890;BME280;4481;43.406;24.454;2023-04-05T01:36:32;77646.69;;;-144.09;100.00
8890;BME280;4481;43.406;24.454;2023-04-05T01:39:03;77642.50;;;-144.09;100.00
8890;BME280;4481;43.406;24.454;2023-04-05T01:41:30;77642.50;;;-144.09;100.00
8890;BME280;4481;43.406;24.454;2023-04-05T01:43:56;77648.78;;;-144.09;100.00
8890;BME280;4481;43.406;24.454;2023-04-05T01:46:23;77648.78;;;-144.09;100.00
8890;BME280;4481;43.406;24.454;2023-04-05T01:48:49;77652.94;;;-144.09;100.00
8890;BME280;4481;43.406;24.454;2023-04-05T01:51:16;77646.69;;;-144.09;100.00
8890;BME280;4481;43.406;24.454;2023-04-05T01:53:42;77642.50;;;-144.09;100.00
8890;BME280;4481;43.406;24.454;2023-04-05T01:56:08;77655.03;;;-144.09;100.00
8890;BME280;4481;43.406;24.454;2023-04-05T01:58:34;77646.69;;;-144.09;100.00
8890;BME280;4481;43.406;24.454;2023-04-05T02:01:00;77663.41;;;-144.09;100.00
8890;BME280;4481;43.406;24.454;2023-04-05T02:03:27;77650.84;;;-144.09;100.00
8890;BME280;4481;43.406;24.454;2023-04-05T02:05:53;77652.94;;;-144.09;100.00
8890;BME280;4481;43.406;24.454;2023-04-05T02:08:20;77663.41;;;-144.09;100.00
8890;BME280;4481;43.406;24.454;2023-04-05T02:10:46;77644.59;;;-144.09;100.00
8890;BME280;4481;43.406;24.454;2023-04-05T02:13:12;77636.22;;;-144.09;100.00
8890;BME280;4481;43.406;24.454;2023-04-05T02:15:38;77636.22;;;-144.09;100.00
8890;BME280;4481;43.406;24.454;2023-04-05T02:18:04;77629.97;;;-144.09;100.00
8890;BME280;4481;43.406;24.454;2023-04-05T02:20:33;77638.31;;;-144.09;100.00
8890;BME280;4481;43.406;24.454;2023-04-05T02:22:59;77642.50;;;-144.09;100.00
8890;BME280;4481;43.406;24.454;2023-04-05T02:25:26;77646.69;;;-144.09;100.00
8890;BME280;4481;43.406;24.454;2023-04-05T02:27:52;77627.88;;;-144.09;100.00
8890;BME280;4481;43.406;24.454;2023-04-05T02:30:18;77644.59;;;-144.09;100.00
8890;BME280;4481;43.406;24.454;2023-04-05T02:32:44;77644.59;;;-144.09;100.00
8890;BME280;4481;43.406;24.454;2023-04-05T02:35:10;77650.84;;;-144.09;100.00
8890;BME280;4481;43.406;24.454;2023-04-05T02:37:38;77648.78;;;-144.09;100.00
8890;BME280;4481;43.406;24.454;2023-04-05T02:40:05;77648.78;;;-144.09;100.00
8890;BME280;4481;43.406;24.454;2023-04-05T02:42:34;77650.84;;;-144.09;100.00
8890;BME280;4481;43.406;24.454;2023-04-05T02:45:00;77678.03;;;-144.09;100.00
8890;BME280;4481;43.406;24.454;2023-04-05T02:47:26;77684.31;;;-144.09;100.00
8890;BME280;4481;43.406;24.454;2023-04-05T02:49:53;77671.75;;;-144.09;100.00
8890;BME280;4481;43.406;24.454;2023-04-05T02:52:19;77663.41;;;-144.09;100.00
8890;BME280;4481;43.406;24.454;2023-04-05T02:54:46;77659.22;;;-144.09;100.00
8890;BME280;4481;43.406;24.454;2023-04-05T02:57:12;77634.13;;;-144.09;100.00
8890;BME280;4481;43.406;24.454;2023-04-05T02:59:38;77650.84;;;-144.09;100.00
8890;BME280;4481;43.406;24.454;2023-04-05T03:02:05;77669.66;;;-144.09;100.00
8890;BME280;4481;43.406;24.454;2023-04-05T03:04:32;77650.84;;;-144.09;100.00
8890;BME280;4481;43.406;24.454;2023-04-05T03:06:59;77648.78;;;-144.09;100.00
8890;BME280;4481;43.406;24.454;2023-04-05T03:09:27;77661.31;;;-144.09;100.00
8890;BME280;4481;43.406;24.454;2023-04-05T03:11:59;77650.84;;;-144.09;100.00
8890;BME280;4481;43.406;24.454;2023-04-05T03:14:25;77648.78;;;-144.09;100.00
8890;BME280;4481;43.406;24.454;2023-04-05T03:16:52;77636.22;;;-144.09;100.00
8890;BME280;4481;43.406;24.454;2023-04-05T03:19:18;77629.97;;;-144.09;100.00
8890;BME280;4481;43.406;24.454;2023-04-05T03:21:46;77659.22;;;-144.09;100.00
8890;BME280;4481;43.406;24.454;2023-04-05T03:24:13;77675.94;;;-144.09;100.00
8890;BME280;4481;43.406;24.454;2023-04-05T03:26:39;77701.03;;;-144.09;100.00
8890;BME280;4481;43.406;24.454;2023-04-05T03:29:06;77696.84;;;-144.09;100.00
8890;BME280;4481;43.406;24.454;2023-04-05T03:31:32;77694.75;;;-144.09;100.00
8890;BME280;4481;43.406;24.454;2023-04-05T03:33:58;77698.94;;;-144.09;100.00
8890;BME280;4481;43.406;24.454;2023-04-05T03:36:24;77688.47;;;-144.09;100.00
8890;BME280;4481;43.406;24.454;2023-04-05T03:38:53;77678.03;;;-144.09;100.00
8890;BME280;4481;43.406;24.454;2023-04-05T03:41:20;77688.47;;;-144.09;100.00
8890;BME280;4481;43.406;24.454;2023-04-05T03:43:47;77690.56;;;-144.09;100.00
8890;BME280;4481;43.406;24.454;2023-04-05T03:46:14;77657.13;;;-144.09;100.00
8890;BME280;4481;43.406;24.454;2023-04-05T03:48:40;77640.41;;;-144.09;100.00
8890;BME280;4481;43.406;24.454;2023-04-05T03:51:06;77644.59;;;-144.09;100.00
8890;BME280;4481;43.406;24.454;2023-04-05T03:53:32;77642.50;;;-144.09;100.00
8890;BME280;4481;43.406;24.454;2023-04-05T03:55:58;77663.41;;;-144.09;100.00
8890;BME280;4481;43.406;24.454;2023-04-05T03:58:25;77657.13;;;-144.09;100.00
8890;BME280;4481;43.406;24.454;2023-04-05T04:00:52;77657.13;;;-144.09;100.00
8890;BME280;4481;43.406;24.454;2023-04-05T04:03:21;77667.59;;;-144.09;100.00
8890;BME280;4481;43.406;24.454;2023-04-05T04:05:47;77678.03;;;-144.09;100.00
8890;BME280;4481;43.406;24.454;2023-04-05T04:08:13;77686.41;;;-144.09;100.00
8890;BME280;4481;43.406;24.454;2023-04-05T04:10:39;77698.94;;;-144.09;100.00
8890;BME280;4481;43.406;24.454;2023-04-05T04:13:06;77690.56;;;-144.09;100.00
8890;BME280;4481;43.406;24.454;2023-04-05T04:15:32;77694.75;;;-144.09;100.00
8890;BME280;4481;43.406;24.454;2023-04-05T04:17:58;77694.75;;;-144.09;100.00
8890;BME280;4481;43.406;24.454;2023-04-05T04:20:25;77696.84;;;-144.09;100.00
8890;BME280;4481;43.406;24.454;2023-04-05T04:22:51;77678.03;;;-144.09;100.00
8890;BME280;4481;43.406;24.454;2023-04-05T04:25:18;77701.03;;;-144.09;100.00
8890;BME280;4481;43.406;24.454;2023-04-05T04:27:44;77688.47;;;-144.09;100.00
8890;BME280;4481;43.406;24.454;2023-04-05T04:30:13;77667.59;;;-144.09;100.00
8890;BME280;4481;43.406;24.454;2023-04-05T04:32:41;77684.31;;;-144.09;100.00
8890;BME280;4481;43.406;24.454;2023-04-05T04:35:17;77671.75;;;-144.09;100.00
8890;BME280;4481;43.406;24.454;2023-04-05T04:37:46;77652.94;;;-144.09;100.00
8890;BME280;4481;43.406;24.454;2023-04-05T04:40:13;77650.84;;;-144.09;100.00
8890;BME280;4481;43.406;24.454;2023-04-05T04:42:42;77621.59;;;-144.09;100.00
8890;BME280;4481;43.406;24.454;2023-04-05T04:45:11;77604.88;;;-144.09;100.00
8890;BME280;4481;43.406;24.454;2023-04-05T04:47:40;77617.41;;;-144.09;100.00
8890;BME280;4481;43.406;24.454;2023-04-05T04:50:07;77588.16;;;-144.09;100.00
8890;BME280;4481;43.406;24.454;2023-04-05T04:52:34;77577.69;;;-144.09;100.00
8890;BME280;4481;43.406;24.454;2023-04-05T04:55:01;77577.69;;;-144.09;100.00
8890;BME280;4481;43.406;24.454;2023-04-05T04:57:27;77575.63;;;-144.09;100.00
8890;BME280;4481;43.406;24.454;2023-04-05T04:59:54;77563.06;;;-144.09;100.00
8890;BME280;4481;43.406;24.454;2023-04-05T05:02:22;77571.44;;;-144.09;100.00
8890;BME280;4481;43.406;24.454;2023-04-05T05:04:48;77531.72;;;-144.09;100.00
8890;BME280;4481;43.406;24.454;2023-04-05T05:07:14;77525.44;;;-144.09;100.00
8890;BME280;4481;43.406;24.454;2023-04-05T05:09:42;77525.44;;;-144.09;100.00
8890;BME280;4481;43.406;24.454;2023-04-05T05:12:08;77502.47;;;-144.09;100.00
8890;BME280;4481;43.406;24.454;2023-04-05T05:14:35;77510.81;;;-144.09;100.00
8890;BME280;4481;43.406;24.454;2023-04-05T05:17:02;77479.47;;;-144.09;100.00
8890;BME280;4481;43.406;24.454;2023-04-05T05:19:29;77469.00;;;-144.09;100.00
8890;BME280;4481;43.406;24.454;2023-04-05T05:21:56;77464.84;;;-144.09;100.00
8890;BME280;4481;43.406;24.454;2023-04-05T05:24:22;77454.38;;;-144.09;100.00
8890;BME280;4481;43.406;24.454;2023-04-05T05:26:49;77446.03;;;-144.09;100.00
8890;BME280;4481;43.406;24.454;2023-04-05T05:29:16;77441.84;;;-144.09;100.00
8890;BME280;4481;43.406;24.454;2023-04-05T05:31:43;77441.84;;;-144.09;100.00
8890;BME280;4481;43.406;24.454;2023-04-05T05:34:10;77427.22;;;-144.09;100.00
8890;BME280;4481;43.406;24.454;2023-04-05T05:36:36;77414.66;;;-144.09;100.00
8890;BME280;4481;43.406;24.454;2023-04-05T05:39:02;77414.66;;;-144.09;100.00
8890;BME280;4481;43.406;24.454;2023-04-05T05:41:30;77406.31;;;-144.09;100.00
8890;BME280;4481;43.406;24.454;2023-04-05T05:43:56;77408.41;;;-144.09;100.00
8890;BME280;4481;43.406;24.454;2023-04-05T05:46:23;77397.94;;;-144.09;100.00
8890;BME280;4481;43.406;24.454;2023-04-05T05:48:50;77427.22;;;-144.09;100.00
8890;BME280;4481;43.406;24.454;2023-04-05T05:51:16;77418.84;;;-144.09;100.00
8890;BME280;4481;43.406;24.454;2023-04-05T05:53:43;77414.66;;;-144.09;100.00
8890;BME280;4481;43.406;24.454;2023-04-05T05:56:10;77393.78;;;-144.09;100.00
8890;BME280;4481;43.406;24.454;2023-04-05T05:58:38;77356.16;;;-144.09;100.00
8890;BME280;4481;43.406;24.454;2023-04-05T06:01:05;77362.41;;;-144.09;100.00
8890;BME280;4481;43.406;24.454;2023-04-05T06:03:32;77358.25;;;-144.09;96.61
8890;BME280;4481;43.406;24.454;2023-04-05T06:05:59;77402.13;;;-144.09;97.85
8890;BME280;4481;43.406;24.454;2023-04-05T06:08:27;77408.41;;;-144.09;98.02
8890;BME280;4481;43.406;24.454;2023-04-05T06:10:53;77410.50;;;-144.09;98.20
8890;BME280;4481;43.406;24.454;2023-04-05T06:13:20;77406.31;;;-144.09;97.73
8890;BME280;4481;43.406;24.454;2023-04-05T06:15:46;77431.38;;;-144.09;98.02
8890;BME280;4481;43.406;24.454;2023-04-05T06:18:13;77429.31;;;-144.09;98.33
8890;BME280;4481;43.406;24.454;2023-04-05T06:20:41;77427.22;;;-144.09;97.09
8890;BME280;4481;43.406;24.454;2023-04-05T06:23:09;77450.19;;;-144.09;96.43
8890;BME280;4481;43.406;24.454;2023-04-05T06:25:38;77443.94;;;-144.09;97.56
8890;BME280;4481;43.406;24.454;2023-04-05T06:28:05;77469.00;;;-144.09;96.82
8890;BME280;4481;43.406;24.454;2023-04-05T06:30:32;77479.47;;;-144.09;96.38
8890;BME280;4481;43.406;24.454;2023-04-05T06:32:59;77448.13;;;-144.09;96.28
8890;BME280;4481;43.406;24.454;2023-04-05T06:35:25;77425.13;;;-144.09;95.24
8890;BME280;4481;43.406;24.454;2023-04-05T06:37:53;77464.84;;;-144.09;94.95
8890;BME280;4481;43.406;24.454;2023-04-05T06:40:19;77477.38;;;-144.09;95.58
8890;BME280;4481;43.406;24.454;2023-04-05T06:42:46;77462.75;;;-144.09;95.76
8890;BME280;4481;43.406;24.454;2023-04-05T06:45:13;77462.75;;;-144.09;94.84
8890;BME280;4481;43.406;24.454;2023-04-05T06:47:40;77504.53;;;-144.09;96.80
8890;BME280;4481;43.406;24.454;2023-04-05T06:50:07;77479.47;;;-144.09;96.23
8890;BME280;4481;43.406;24.454;2023-04-05T06:52:34;77483.66;;;-144.09;95.62
8890;BME280;4481;43.406;24.454;2023-04-05T06:55:04;77483.66;;;-144.09;95.94
8890;BME280;4481;43.406;24.454;2023-04-05T06:57:30;77500.38;;;-144.09;96.40
8890;BME280;4481;43.406;24.454;2023-04-05T06:59:57;77502.47;;;-144.09;96.99
8890;BME280;4481;43.406;24.454;2023-04-05T07:02:23;77494.09;;;-144.09;94.53
8890;BME280;4481;43.406;24.454;2023-04-05T07:04:50;77512.91;;;-144.09;95.78
8890;BME280;4481;43.406;24.454;2023-04-05T07:07:16;77544.25;;;-144.09;95.98
8890;BME280;4481;43.406;24.454;2023-04-05T07:09:42;77535.91;;;-144.09;96.72
8890;BME280;4481;43.406;24.454;2023-04-05T07:12:09;77583.97;;;-144.09;96.35
8890;BME280;4481;43.406;24.454;2023-04-05T07:14:36;77575.63;;;-144.09;96.57
8890;BME280;4481;43.406;24.454;2023-04-05T07:17:03;77563.06;;;-144.09;96.94
8890;BME280;4481;43.406;24.454;2023-04-05T07:19:30;77556.81;;;-144.09;96.66
8890;BME280;4481;43.406;24.454;2023-04-05T07:21:58;77544.25;;;-144.09;96.49
8890;BME280;4481;43.406;24.454;2023-04-05T07:24:24;77535.91;;;-144.09;96.40
8890;BME280;4481;43.406;24.454;2023-04-05T07:26:50;77519.19;;;-144.09;96.53
8890;BME280;4481;43.406;24.454;2023-04-05T07:29:17;77492.00;;;-144.09;96.54
8890;BME280;4481;43.406;24.454;2023-04-05T07:31:43;77515.00;;;-144.09;95.29
8890;BME280;4481;43.406;24.454;2023-04-05T07:34:09;77498.28;;;-144.09;95.31
8890;BME280;4481;43.406;24.454;2023-04-05T07:36:36;77485.72;;;-144.09;95.17
8890;BME280;4481;43.406;24.454;2023-04-05T07:39:02;77475.28;;;-144.09;93.94
8890;BME280;4481;43.406;24.454;2023-04-05T07:41:29;77489.91;;;-144.09;94.38
8890;BME280;4481;43.406;24.454;2023-04-05T07:43:56;77481.56;;;-144.09;94.27
8890;BME280;4481;43.406;24.454;2023-04-05T07:46:23;77483.66;;;-144.09;95.01
8890;BME280;4481;43.406;24.454;2023-04-05T07:48:51;77462.75;;;-144.09;94.85
8890;BME280;4481;43.406;24.454;2023-04-05T07:51:17;77456.47;;;-144.09;94.81
8890;BME280;4481;43.406;24.454;2023-04-05T07:53:44;77433.47;;;-144.09;94.41
8890;BME280;4481;43.406;24.454;2023-04-05T07:56:11;77435.56;;;-144.09;94.43
8890;BME280;4481;43.406;24.454;2023-04-05T07:58:38;77429.31;;;-144.09;95.13
8890;BME280;4481;43.406;24.454;2023-04-05T08:01:06;77408.41;;;-144.09;93.97
8890;BME280;4481;43.406;24.454;2023-04-05T08:03:34;77404.22;;;-144.09;93.76
8890;BME280;4481;43.406;24.454;2023-04-05T08:06:08;77400.03;;;-144.09;92.84
8890;BME280;4481;43.406;24.454;2023-04-05T08:08:36;77385.41;;;-144.09;93.75
8890;BME280;4481;43.406;24.454;2023-04-05T08:11:03;77387.50;;;-144.09;94.86
8890;BME280;4481;43.406;24.454;2023-04-05T08:13:29;77387.50;;;-144.09;93.57
8890;BME280;4481;43.406;24.454;2023-04-05T08:15:55;77395.88;;;-144.09;93.75
8890;BME280;4481;43.406;24.454;2023-04-05T08:18:22;77393.78;;;-144.09;92.93
8890;BME280;4481;43.406;24.454;2023-04-05T08:20:50;77427.22;;;-144.09;93.27
8890;BME280;4481;43.406;24.454;2023-04-05T08:23:16;77427.22;;;-144.09;92.08
8890;BME280;4481;43.406;24.454;2023-04-05T08:25:43;77416.75;;;-144.09;92.40
8890;BME280;4481;43.406;24.454;2023-04-05T08:28:10;77395.88;;;-144.09;92.12
8890;BME280;4481;43.406;24.454;2023-04-05T08:30:37;77391.69;;;-144.09;91.88
8890;BME280;4481;43.406;24.454;2023-04-05T08:33:03;77383.31;;;-144.09;91.18
8890;BME280;4481;43.406;24.454;2023-04-05T08:35:30;77420.94;;;-144.09;91.62
8890;BME280;4481;43.406;24.454;2023-04-05T08:37:57;77420.94;;;-144.09;90.18
8890;BME280;4481;43.406;24.454;2023-04-05T08:40:32;77435.56;;;-144.09;90.42
8890;BME280;4481;43.406;24.454;2023-04-05T08:43:07;77433.47;;;-144.09;91.53
8890;BME280;4481;43.406;24.454;2023-04-05T08:45:38;77427.22;;;-144.09;90.76
8890;BME280;4481;43.406;24.454;2023-04-05T08:48:07;77439.75;;;-144.09;91.81
8890;BME280;4481;43.406;24.454;2023-04-05T08:50:33;77441.84;;;-144.09;92.27
8890;BME280;4481;43.406;24.454;2023-04-05T08:53:00;77406.31;;;-144.09;92.01
8890;BME280;4481;43.406;24.454;2023-04-05T08:55:27;77433.47;;;-144.09;92.49
8890;BME280;4481;43.406;24.454;2023-04-05T08:57:55;77416.75;;;-144.09;91.86
8890;BME280;4481;43.406;24.454;2023-04-05T09:00:24;77408.41;;;-144.09;92.67
8890;BME280;4481;43.406;24.454;2023-04-05T09:02:55;77410.50;;;-144.09;91.51
8890;BME280;4481;43.406;24.454;2023-04-05T09:05:23;77418.84;;;-144.09;91.81
8890;BME280;4481;43.406;24.454;2023-04-05T09:07:49;77393.78;;;-144.09;89.87
8890;BME280;4481;43.406;24.454;2023-04-05T09:10:18;77385.41;;;-144.09;91.22
8890;BME280;4481;43.406;24.454;2023-04-05T09:12:44;77372.88;;;-144.09;90.24
8890;BME280;4481;43.406;24.454;2023-04-05T09:15:10;77372.88;;;-144.09;89.46
8890;BME280;4481;43.406;24.454;2023-04-05T09:17:40;77416.75;;;-144.09;89.83
8890;BME280;4481;43.406;24.454;2023-04-05T09:20:08;77377.06;;;-144.09;89.81
8890;BME280;4481;43.406;24.454;2023-04-05T09:22:41;77391.69;;;-144.09;90.56
8890;BME280;4481;43.406;24.454;2023-04-05T09:25:08;77360.34;;;-144.09;90.04
8890;BME280;4481;43.406;24.454;2023-04-05T09:27:52;77345.69;;;-144.09;89.58
8890;BME280;4481;43.406;24.454;2023-04-05T09:30:21;77301.81;;;-144.09;90.68
8890;BME280;4481;43.406;24.454;2023-04-05T09:32:50;77274.63;;;-144.09;88.60
8890;BME280;4481;43.406;24.454;2023-04-05T09:35:19;77249.56;;;-144.09;88.38
8890;BME280;4481;43.406;24.454;2023-04-05T09:37:49;77207.75;;;-144.09;88.41
8890;BME280;4481;43.406;24.454;2023-04-05T09:40:17;77178.50;;;-144.09;87.91
8890;BME280;4481;43.406;24.454;2023-04-05T09:42:45;77176.41;;;-144.09;85.98
8890;BME280;4481;43.406;24.454;2023-04-05T09:45:12;77220.31;;;-144.09;86.02
8890;BME280;4481;43.406;24.454;2023-04-05T09:47:38;77237.03;;;-144.09;86.40
8890;BME280;4481;43.406;24.454;2023-04-05T09:50:17;77247.47;;;-144.09;86.65
8890;BME280;4481;43.406;24.454;2023-04-05T09:52:44;77199.41;;;-144.09;87.04
8890;BME280;4481;43.406;24.454;2023-04-05T09:55:11;77159.69;;;-144.09;85.64
8890;BME280;4481;43.406;24.454;2023-04-05T09:57:38;77153.41;;;-144.09;85.20
8890;BME280;4481;43.406;24.454;2023-04-05T10:00:16;77159.69;;;-144.09;85.44
8890;BME280;4481;43.406;24.454;2023-04-05T10:02:43;77134.63;;;-144.09;84.85
8890;BME280;4481;43.406;24.454;2023-04-05T10:05:12;77186.84;;;-144.09;86.76
8890;BME280;4481;43.406;24.454;2023-04-05T10:07:40;77174.31;;;-144.09;86.12
8890;BME280;4481;43.406;24.454;2023-04-05T10:10:07;77230.75;;;-144.09;86.83
8890;BME280;4481;43.406;24.454;2023-04-05T10:12:37;77270.47;;;-144.09;87.86
8890;BME280;4481;43.406;24.454;2023-04-05T10:15:04;77272.56;;;-144.09;87.68
8890;BME280;4481;43.406;24.454;2023-04-05T10:17:37;77283.00;;;-144.09;87.54
8890;BME280;4481;43.406;24.454;2023-04-05T10:20:09;77257.91;;;-144.09;87.44
8890;BME280;4481;43.406;24.454;2023-04-05T10:22:41;77268.38;;;-144.09;87.80
8890;BME280;4481;43.406;24.454;2023-04-05T10:25:15;77285.09;;;-144.09;88.36
8890;BME280;4481;43.406;24.454;2023-04-05T10:27:46;77260.00;;;-144.09;88.51
8890;BME280;4481;43.406;24.454;2023-04-05T10:30:15;77270.47;;;-144.09;89.12
8890;BME280;4481;43.406;24.454;2023-04-05T10:32:52;77243.28;;;-144.09;89.67
8890;BME280;4481;43.406;24.454;2023-04-05T10:35:27;77255.81;;;-144.09;87.79
8890;BME280;4481;43.406;24.454;2023-04-05T10:38:10;77276.72;;;-144.09;87.85
8890;BME280;4481;43.406;24.454;2023-04-05T10:40:37;77283.00;;;-144.09;87.97
8890;BME280;4481;43.406;24.454;2023-04-05T10:43:07;77262.09;;;-144.09;89.37
8890;BME280;4481;43.406;24.454;2023-04-05T10:45:40;77249.56;;;-144.09;88.51
8890;BME280;4481;43.406;24.454;2023-04-05T10:48:14;77234.94;;;-144.09;89.30
8890;BME280;4481;43.406;24.454;2023-04-05T10:50:41;77253.75;;;-144.09;89.48
8890;BME280;4481;43.406;24.454;2023-04-05T10:53:08;77274.63;;;-144.09;88.38
8890;BME280;4481;43.406;24.454;2023-04-05T10:55:35;77251.66;;;-144.09;87.73
8890;BME280;4481;43.406;24.454;2023-04-05T10:58:01;77264.19;;;-144.09;88.99
8890;BME280;4481;43.406;24.454;2023-04-05T11:00:28;77255.81;;;-144.09;88.18
8890;BME280;4481;43.406;24.454;2023-04-05T11:02:55;77262.09;;;-144.09;86.92
8890;BME280;4481;43.406;24.454;2023-04-05T11:05:30;77280.91;;;-144.09;89.13
8890;BME280;4481;43.406;24.454;2023-04-05T11:07:59;77297.63;;;-144.09;89.46
8890;BME280;4481;43.406;24.454;2023-04-05T11:10:27;77324.81;;;-144.09;89.92
8890;BME280;4481;43.406;24.454;2023-04-05T11:13:07;77347.78;;;-144.09;90.79
8890;BME280;4481;43.406;24.454;2023-04-05T11:15:35;77310.16;;;-144.09;90.78
8890;BME280;4481;43.406;24.454;2023-04-05T11:18:02;77274.63;;;-144.09;88.61
8890;BME280;4481;43.406;24.454;2023-04-05T11:20:40;77253.75;;;-144.09;87.75
8890;BME280;4481;43.406;24.454;2023-04-05T11:23:06;77253.75;;;-144.09;87.22
8890;BME280;4481;43.406;24.454;2023-04-05T11:25:36;77237.03;;;-144.09;87.68
8890;BME280;4481;43.406;24.454;2023-04-05T11:28:04;77228.66;;;-144.09;87.34
8890;BME280;4481;43.406;24.454;2023-04-05T11:30:46;77178.50;;;-144.09;86.43
8890;BME280;4481;43.406;24.454;2023-04-05T11:36:29;77088.63;;;-144.09;85.68
8890;BME280;4481;43.406;24.454;2023-04-05T11:39:23;77071.91;;;-144.09;82.57
8890;BME280;4481;43.406;24.454;2023-04-05T11:41:54;77086.53;;;-144.09;85.06
8890;BME280;4481;43.406;24.454;2023-04-05T11:44:22;77113.72;;;-144.09;83.82
8890;BME280;4481;43.406;24.454;2023-04-05T11:46:48;77142.97;;;-144.09;84.08
8890;BME280;4481;43.406;24.454;2023-04-05T11:49:15;77145.06;;;-144.09;84.46
8890;BME280;4481;43.406;24.454;2023-04-05T11:51:42;77170.16;;;-144.09;85.61
8890;BME280;4481;43.406;24.454;2023-04-05T11:54:08;77161.78;;;-144.09;85.26
8890;BME280;4481;43.406;24.454;2023-04-05T11:56:35;77126.25;;;-144.09;86.31
8890;BME280;4481;43.406;24.454;2023-04-05T11:59:02;77115.81;;;-144.09;86.24
8890;BME280;4481;43.406;24.454;2023-04-05T12:01:28;77138.78;;;-144.09;85.89
8890;BME280;4481;43.406;24.454;2023-04-05T12:03:55;77132.53;;;-144.09;86.15
8890;BME280;4481;43.406;24.454;2023-04-05T12:06:22;77105.34;;;-144.09;84.45
8890;BME280;4481;43.406;24.454;2023-04-05T12:08:50;77145.06;;;-144.09;84.81
8890;BME280;4481;43.406;24.454;2023-04-05T12:11:23;77193.13;;;-144.09;84.31
8890;BME280;4481;43.406;24.454;2023-04-05T12:13:52;77207.75;;;-144.09;86.07
8890;BME280;4481;43.406;24.454;2023-04-05T12:16:19;77203.59;;;-144.09;86.43
8890;BME280;4481;43.406;24.454;2023-04-05T12:18:52;77226.56;;;-144.09;85.69
8890;BME280;4481;43.406;24.454;2023-04-05T12:21:18;77234.94;;;-144.09;86.17
8890;BME280;4481;43.406;24.454;2023-04-05T12:23:45;77211.94;;;-144.09;86.90
8890;BME280;4481;43.406;24.454;2023-04-05T12:26:13;77180.59;;;-144.09;86.91
8890;BME280;4481;43.406;24.454;2023-04-05T12:28:49;77180.59;;;-144.09;86.10
8890;BME280;4481;43.406;24.454;2023-04-05T12:31:16;77203.59;;;-144.09;87.30
8890;BME280;4481;43.406;24.454;2023-04-05T12:33:42;77207.75;;;-144.09;87.42
8890;BME280;4481;43.406;24.454;2023-04-05T12:36:09;77193.13;;;-144.09;85.33
8890;BME280;4481;43.406;24.454;2023-04-05T12:38:36;77178.50;;;-144.09;86.74
8890;BME280;4481;43.406;24.454;2023-04-05T12:41:03;77163.88;;;-144.09;85.80
8890;BME280;4481;43.406;24.454;2023-04-05T12:43:37;77182.69;;;-144.09;86.35
8890;BME280;4481;43.406;24.454;2023-04-05T12:46:07;77138.78;;;-144.09;86.87
8890;BME280;4481;43.406;24.454;2023-04-05T12:48:36;77149.25;;;-144.09;86.68
8890;BME280;4481;43.406;24.454;2023-04-05T12:51:03;77174.31;;;-144.09;86.08
8890;BME280;4481;43.406;24.454;2023-04-05T12:53:29;77170.16;;;-144.09;86.23